createdAt,value
2018-08-17T00:00:45.895Z,35.70
2018-08-17T00:03:11.836Z,35.00
2018-08-17T00:05:37.782Z,34.54
2018-08-17T00:08:03.765Z,35.04
2018-08-17T00:10:29.712Z,35.25
2018-08-17T00:12:55.664Z,35.41
2018-08-17T00:15:21.616Z,35.42
2018-08-17T00:17:47.571Z,35.09
2018-08-17T00:20:13.524Z,35.10
2018-08-17T00:22:39.476Z,35.00
2018-08-17T00:25:05.439Z,34.61
2018-08-17T00:27:31.407Z,34.89
2018-08-17T00:29:57.357Z,35.27
2018-08-17T00:32:23.312Z,34.75
2018-08-17T00:34:49.242Z,34.16
2018-08-17T00:37:15.196Z,34.76
2018-08-17T00:39:41.150Z,34.46
2018-08-17T00:42:07.107Z,33.89
2018-08-17T00:44:33.047Z,34.27
2018-08-17T00:46:59.982Z,33.88
2018-08-17T00:49:26.006Z,34.34
2018-08-17T00:51:51.932Z,33.94
2018-08-17T00:54:17.863Z,33.42
2018-08-17T00:56:43.791Z,33.29
2018-08-17T00:59:09.740Z,34.10
2018-08-17T01:01:35.713Z,33.19
2018-08-17T01:04:01.856Z,33.48
2018-08-17T01:06:27.826Z,34.25
2018-08-17T01:08:53.768Z,34.11
2018-08-17T01:11:19.723Z,34.36
2018-08-17T01:13:45.695Z,33.35
2018-08-17T01:16:11.623Z,33.85
2018-08-17T01:18:37.580Z,34.76
2018-08-17T01:21:03.515Z,33.95
2018-08-17T01:23:29.465Z,33.79
2018-08-17T01:25:55.419Z,34.20
2018-08-17T01:28:21.357Z,34.23
2018-08-17T01:30:47.330Z,33.79
2018-08-17T01:33:13.328Z,33.49
2018-08-17T01:35:39.281Z,34.27
2018-08-17T01:38:05.232Z,33.03
2018-08-17T01:40:31.228Z,33.96
2018-08-17T01:42:57.182Z,33.45
2018-08-17T01:45:23.166Z,34.45
2018-08-17T01:47:49.110Z,34.92
2018-08-17T01:50:15.080Z,34.40
2018-08-17T01:52:41.032Z,34.84
2018-08-17T01:55:07.011Z,34.95
2018-08-17T01:57:33.000Z,33.71
2018-08-17T01:59:58.964Z,34.81
2018-08-17T02:02:24.901Z,34.35
2018-08-17T02:04:50.864Z,34.44
2018-08-17T02:07:16.844Z,34.37
2018-08-17T02:09:42.825Z,35.00
2018-08-17T02:12:08.764Z,35.13
2018-08-17T02:14:34.744Z,35.13
2018-08-17T02:17:00.691Z,34.67
2018-08-17T02:19:26.635Z,34.40
2018-08-17T02:21:52.587Z,34.87
2018-08-17T02:24:18.603Z,34.61
2018-08-17T02:26:44.545Z,34.26
2018-08-17T02:29:10.484Z,34.16
2018-08-17T02:31:36.448Z,35.03
2018-08-17T02:34:02.424Z,34.79
2018-08-17T02:36:28.361Z,34.91
2018-08-17T02:38:54.308Z,34.12
2018-08-17T02:41:20.264Z,35.16
2018-08-17T02:43:46.222Z,34.32
2018-08-17T02:46:12.148Z,35.26
2018-08-17T02:48:38.103Z,34.90
2018-08-17T02:51:05.043Z,35.05
2018-08-17T02:53:30.965Z,34.62
2018-08-17T02:55:56.924Z,34.74
2018-08-17T02:58:22.881Z,34.35
2018-08-17T03:00:48.832Z,34.44
2018-08-17T03:03:14.774Z,33.75
2018-08-17T03:05:40.752Z,35.15
2018-08-17T03:08:06.718Z,34.10
2018-08-17T03:10:32.687Z,34.22
2018-08-17T03:12:58.623Z,34.00
2018-08-17T03:15:24.597Z,34.63
2018-08-17T03:17:50.529Z,34.45
2018-08-17T03:20:16.490Z,35.00
2018-08-17T03:22:42.558Z,34.71
2018-08-17T03:25:08.567Z,33.84
2018-08-17T03:27:34.497Z,34.67
2018-08-17T03:30:00.566Z,33.90
2018-08-17T03:32:26.520Z,34.34
2018-08-17T03:34:52.482Z,34.01
2018-08-17T03:37:18.495Z,34.26
2018-08-17T03:39:44.428Z,33.97
2018-08-17T03:42:10.393Z,34.04
2018-08-17T03:44:36.387Z,34.74
2018-08-17T03:47:02.329Z,34.20
2018-08-17T03:49:28.292Z,34.74
2018-08-17T03:51:54.241Z,34.42
2018-08-17T03:54:20.192Z,34.26
2018-08-17T03:56:46.141Z,33.51
2018-08-17T03:59:12.136Z,35.55
2018-08-17T04:01:38.102Z,33.92
2018-08-17T04:04:04.130Z,33.88
2018-08-17T04:06:30.133Z,35.41
2018-08-17T04:08:56.098Z,34.49
2018-08-17T04:11:22.047Z,35.06
2018-08-17T04:13:47.977Z,34.66
2018-08-17T04:16:13.930Z,35.34
2018-08-17T04:18:39.876Z,34.79
2018-08-17T04:21:05.825Z,34.62
2018-08-17T04:23:31.771Z,33.86
2018-08-17T04:25:57.698Z,34.54
2018-08-17T04:28:23.737Z,34.53
2018-08-17T04:30:49.697Z,34.82
2018-08-17T04:33:15.644Z,34.58
2018-08-17T04:35:41.602Z,34.60
2018-08-17T04:38:07.528Z,34.57
2018-08-17T04:40:33.493Z,35.42
2018-08-17T04:42:59.445Z,34.45
2018-08-17T04:45:25.399Z,34.77
2018-08-17T04:47:51.400Z,35.14
2018-08-17T04:50:17.360Z,34.76
2018-08-17T04:52:43.336Z,35.17
2018-08-17T04:55:09.323Z,34.86
2018-08-17T04:57:35.285Z,34.44
2018-08-17T05:00:01.231Z,34.55
2018-08-17T05:02:27.202Z,34.34
2018-08-17T05:04:53.146Z,35.19
2018-08-17T05:07:19.120Z,35.41
2018-08-17T05:09:45.072Z,34.58
2018-08-17T05:12:11.077Z,33.99
2018-08-17T05:14:37.010Z,34.23
2018-08-17T05:17:02.999Z,34.13
2018-08-17T05:19:28.939Z,34.63
2018-08-17T05:21:54.943Z,33.88
2018-08-17T05:24:20.904Z,34.33
2018-08-17T05:26:46.863Z,33.95
2018-08-17T05:29:12.789Z,33.28
2018-08-17T05:31:38.735Z,34.57
2018-08-17T05:34:04.700Z,33.80
2018-08-17T05:36:30.675Z,34.06
2018-08-17T05:38:56.626Z,33.57
2018-08-17T05:41:22.609Z,33.75
2018-08-17T05:43:48.591Z,33.24
2018-08-17T05:46:14.573Z,32.87
2018-08-17T05:48:40.508Z,33.60
2018-08-17T05:51:06.449Z,34.09
2018-08-17T05:53:32.386Z,33.35
2018-08-17T05:55:58.344Z,33.32
2018-08-17T05:58:24.289Z,33.31
2018-08-17T06:00:50.266Z,32.61
2018-08-17T06:03:16.203Z,32.86
2018-08-17T06:05:42.199Z,33.06
2018-08-17T06:08:08.183Z,33.01
2018-08-17T06:10:34.195Z,33.72
2018-08-17T06:13:00.210Z,32.25
2018-08-17T06:15:26.177Z,33.40
2018-08-17T06:17:52.161Z,32.45
2018-08-17T06:20:18.111Z,32.73
2018-08-17T06:22:44.065Z,32.91
2018-08-17T06:25:10.016Z,31.98
2018-08-17T06:27:35.980Z,33.14
2018-08-17T06:30:01.940Z,33.58
2018-08-17T06:32:27.916Z,33.30
2018-08-17T06:34:53.907Z,32.86
2018-08-17T06:37:19.952Z,32.02
2018-08-17T06:39:45.867Z,31.96
2018-08-17T06:42:11.931Z,32.55
2018-08-17T06:44:37.925Z,32.88
2018-08-17T06:47:03.889Z,33.10
2018-08-17T06:49:29.858Z,32.21
2018-08-17T06:51:55.846Z,31.28
2018-08-17T06:54:21.804Z,31.95
2018-08-17T06:56:47.789Z,33.17
2018-08-17T06:59:13.721Z,32.21
2018-08-17T07:01:39.679Z,31.86
2018-08-17T07:04:05.629Z,31.91
2018-08-17T07:06:31.570Z,31.92
2018-08-17T07:08:57.565Z,31.75
2018-08-17T07:11:23.511Z,31.84
2018-08-17T07:13:49.451Z,31.71
2018-08-17T07:16:15.408Z,32.74
2018-08-17T07:18:41.344Z,32.09
2018-08-17T07:21:07.317Z,31.36
2018-08-17T07:23:33.291Z,31.62
2018-08-17T07:25:59.257Z,32.04
2018-08-17T07:28:25.190Z,32.33
2018-08-17T07:30:51.128Z,31.76
2018-08-17T07:33:17.100Z,31.32
2018-08-17T07:35:43.051Z,31.16
2018-08-17T07:38:08.999Z,32.10
2018-08-17T07:40:34.952Z,31.93
2018-08-17T07:43:00.889Z,32.05
2018-08-17T07:45:26.823Z,31.83
2018-08-17T07:47:52.804Z,30.92
2018-08-17T07:50:18.724Z,30.78
2018-08-17T07:52:44.721Z,32.27
2018-08-17T07:55:10.726Z,31.45
2018-08-17T07:57:36.704Z,31.51
2018-08-17T08:00:02.667Z,30.99
2018-08-17T08:02:28.636Z,31.75
2018-08-17T08:04:54.591Z,31.50
2018-08-17T08:07:20.557Z,31.25
2018-08-17T08:09:46.495Z,31.61
2018-08-17T08:12:12.412Z,31.34
2018-08-17T08:14:38.421Z,31.46
2018-08-17T08:17:04.351Z,31.17
2018-08-17T08:19:30.295Z,31.51
2018-08-17T08:21:56.251Z,31.12
2018-08-17T08:24:22.214Z,30.69
2018-08-17T08:26:48.178Z,30.61
2018-08-17T08:29:14.166Z,30.54
2018-08-17T08:31:40.124Z,30.43
2018-08-17T08:34:06.079Z,30.76
2018-08-17T08:36:32.033Z,30.29
2018-08-17T08:38:58.013Z,29.81
2018-08-17T08:41:23.965Z,29.95
2018-08-17T08:43:49.951Z,30.17
2018-08-17T08:46:15.941Z,30.36
2018-08-17T08:48:41.939Z,29.89
2018-08-17T08:51:07.901Z,31.18
2018-08-17T08:53:33.856Z,31.34
2018-08-17T08:55:59.811Z,31.54
2018-08-17T08:58:25.739Z,31.83
2018-08-17T09:00:51.685Z,31.52
2018-08-17T09:03:17.639Z,31.77
2018-08-17T09:05:43.596Z,31.30
2018-08-17T09:08:09.582Z,31.39
2018-08-17T09:10:35.528Z,31.13
2018-08-17T09:13:01.481Z,31.19
2018-08-17T09:15:27.476Z,30.86
2018-08-17T09:17:53.413Z,31.04
2018-08-17T09:20:19.435Z,31.19
2018-08-17T09:22:45.352Z,32.08
2018-08-17T09:25:11.324Z,31.24
2018-08-17T09:27:37.273Z,31.39
2018-08-17T09:30:03.230Z,31.70
2018-08-17T09:32:29.156Z,30.95
2018-08-17T09:34:55.109Z,31.48
2018-08-17T09:37:21.048Z,31.51
2018-08-17T09:39:47.006Z,31.05
2018-08-17T09:42:13.004Z,31.24
2018-08-17T09:44:38.895Z,31.61
2018-08-17T09:47:04.861Z,30.99
2018-08-17T09:49:30.802Z,31.21
2018-08-17T09:51:56.761Z,31.00
2018-08-17T09:54:22.702Z,31.16
2018-08-17T09:56:48.663Z,31.10
2018-08-17T09:59:14.617Z,31.41
2018-08-17T10:01:40.551Z,31.34
2018-08-17T10:04:06.511Z,30.95
2018-08-17T10:06:32.454Z,30.92
2018-08-17T10:08:58.422Z,30.37
2018-08-17T10:11:24.356Z,30.64
2018-08-17T10:13:50.284Z,30.36
2018-08-17T10:16:16.247Z,30.54
2018-08-17T10:18:42.225Z,30.42
2018-08-17T10:21:08.340Z,31.18
2018-08-17T10:23:34.130Z,30.30
2018-08-17T10:26:00.062Z,30.58
2018-08-17T10:28:25.996Z,30.32
2018-08-17T10:30:51.923Z,30.72
2018-08-17T10:33:17.849Z,30.09
2018-08-17T10:35:43.798Z,30.64
2018-08-17T10:38:09.728Z,29.98
2018-08-17T10:40:35.726Z,30.30
2018-08-17T10:43:01.690Z,30.41
2018-08-17T10:45:27.621Z,30.06
2018-08-17T10:47:53.579Z,30.85
2018-08-17T10:50:19.529Z,30.55
2018-08-17T10:52:45.522Z,30.29
2018-08-17T10:55:11.466Z,29.96
2018-08-17T10:57:37.429Z,30.56
2018-08-17T11:00:03.368Z,30.62
2018-08-17T11:02:29.388Z,30.10
2018-08-17T11:04:55.344Z,30.49
2018-08-17T11:07:21.319Z,29.01
2018-08-17T11:09:47.260Z,30.03
2018-08-17T11:12:13.244Z,29.68
2018-08-17T11:14:39.185Z,29.87
2018-08-17T11:17:05.213Z,30.25
2018-08-17T11:19:31.147Z,30.24
2018-08-17T11:21:57.122Z,30.34
2018-08-17T11:24:23.080Z,30.43
2018-08-17T11:26:49.058Z,30.24
2018-08-17T11:29:15.016Z,30.53
2018-08-17T11:31:40.979Z,30.10
2018-08-17T11:34:06.961Z,29.82
2018-08-17T11:36:32.924Z,29.83
2018-08-17T11:38:58.888Z,30.15
2018-08-17T11:41:24.926Z,29.86
2018-08-17T11:43:50.845Z,30.25
2018-08-17T11:46:16.820Z,30.02
2018-08-17T11:48:42.776Z,29.91
2018-08-17T11:51:08.705Z,30.22
2018-08-17T11:53:34.677Z,30.01
2018-08-17T11:56:00.659Z,29.69
2018-08-17T11:58:26.634Z,29.93
2018-08-17T12:00:52.618Z,29.64
2018-08-17T12:03:18.564Z,29.49
2018-08-17T12:05:44.491Z,28.62
2018-08-17T12:08:10.528Z,29.08
2018-08-17T12:10:36.440Z,29.99
2018-08-17T12:13:02.376Z,29.72
2018-08-17T12:15:28.348Z,29.46
2018-08-17T12:17:54.307Z,29.75
2018-08-17T12:20:20.326Z,29.05
2018-08-17T12:22:46.285Z,29.18
2018-08-17T12:25:12.365Z,29.45
2018-08-17T12:27:38.181Z,28.77
2018-08-17T12:30:04.140Z,29.23
2018-08-17T12:32:30.103Z,29.20
2018-08-17T12:34:56.212Z,29.72
2018-08-17T12:37:22.152Z,29.30
2018-08-17T12:39:48.108Z,29.34
2018-08-17T12:42:14.052Z,29.10
2018-08-17T12:44:40.021Z,29.72
2018-08-17T12:47:06.051Z,29.62
2018-08-17T12:49:31.989Z,30.00
2018-08-17T12:51:57.941Z,29.63
2018-08-17T12:54:23.931Z,29.78
2018-08-17T12:56:49.884Z,29.14
2018-08-17T12:59:15.870Z,28.50
2018-08-17T13:01:41.843Z,28.52
2018-08-17T13:04:07.781Z,28.69
2018-08-17T13:06:33.776Z,28.78
2018-08-17T13:08:59.720Z,29.17
2018-08-17T13:11:25.667Z,29.00
2018-08-17T13:13:51.620Z,29.27
2018-08-17T13:16:17.581Z,28.92
2018-08-17T13:18:43.597Z,28.75
2018-08-17T13:21:09.527Z,29.29
2018-08-17T13:23:35.482Z,28.87
2018-08-17T13:26:01.432Z,29.23
2018-08-17T13:28:27.410Z,28.97
2018-08-17T13:30:53.382Z,29.47
2018-08-17T13:33:19.344Z,29.30
2018-08-17T13:35:45.272Z,28.34
2018-08-17T13:38:11.213Z,28.50
2018-08-17T13:40:37.152Z,27.99
2018-08-17T13:43:03.170Z,28.61
2018-08-17T13:45:29.117Z,28.69
2018-08-17T13:47:55.179Z,28.98
2018-08-17T13:50:21.159Z,28.81
2018-08-17T13:52:47.165Z,28.23
2018-08-17T13:55:13.111Z,28.80
2018-08-17T13:57:39.072Z,29.04
2018-08-17T14:00:05.027Z,29.10
2018-08-17T14:02:30.957Z,28.70
2018-08-17T14:04:56.883Z,28.28
2018-08-17T14:07:22.836Z,28.39
2018-08-17T14:09:48.789Z,29.03
2018-08-17T14:12:14.756Z,28.44
2018-08-17T14:14:40.696Z,28.64
2018-08-17T14:17:06.643Z,28.56
2018-08-17T14:19:32.593Z,28.80
2018-08-17T14:21:58.540Z,28.79
2018-08-17T14:24:24.490Z,27.53
2018-08-17T14:26:50.436Z,28.72
2018-08-17T14:29:16.408Z,27.93
2018-08-17T14:31:42.459Z,27.57
2018-08-17T14:34:08.409Z,28.16
2018-08-17T14:36:34.365Z,28.38
2018-08-17T14:39:00.438Z,27.98
2018-08-17T14:41:26.372Z,27.75
2018-08-17T14:43:52.406Z,27.85
2018-08-17T14:46:18.362Z,28.46
2018-08-17T14:48:44.335Z,26.74
2018-08-17T14:51:10.288Z,26.89
2018-08-17T14:53:36.251Z,26.86
2018-08-17T14:56:02.190Z,27.21
2018-08-17T14:58:28.162Z,27.15
2018-08-17T15:00:54.123Z,26.71
2018-08-17T15:03:20.069Z,26.95
2018-08-17T15:05:45.997Z,27.29
2018-08-17T15:08:11.942Z,27.34
2018-08-17T15:10:37.864Z,27.51
2018-08-17T15:13:03.884Z,27.49
2018-08-17T15:15:29.817Z,27.28
2018-08-17T15:17:55.759Z,27.26
2018-08-17T15:20:21.708Z,27.15
2018-08-17T15:22:47.674Z,27.73
2018-08-17T15:25:13.624Z,27.27
2018-08-17T15:27:39.583Z,27.03
2018-08-17T15:30:05.510Z,27.18
2018-08-17T15:32:31.511Z,27.76
2018-08-17T15:34:57.479Z,26.68
2018-08-17T15:37:23.414Z,27.70
2018-08-17T15:39:49.365Z,27.12
2018-08-17T15:42:15.308Z,27.56
2018-08-17T15:44:41.268Z,26.93
2018-08-17T15:47:07.205Z,27.06
2018-08-17T15:49:33.503Z,26.71
2018-08-17T15:51:59.472Z,26.16
2018-08-17T15:54:25.397Z,27.02
2018-08-17T15:56:51.378Z,26.84
2018-08-17T15:59:17.324Z,27.22
2018-08-17T16:01:43.294Z,26.63
2018-08-17T16:04:09.246Z,26.67
2018-08-17T16:06:35.217Z,26.86
2018-08-17T16:09:02.184Z,26.75
2018-08-17T16:11:28.149Z,26.68
2018-08-17T16:13:54.105Z,27.40
2018-08-17T16:16:20.151Z,27.43
2018-08-17T16:18:46.084Z,27.32
2018-08-17T16:21:12.042Z,26.88
2018-08-17T16:23:38.001Z,27.01
2018-08-17T16:26:03.933Z,26.99
2018-08-17T16:28:29.857Z,27.39
2018-08-17T16:30:55.903Z,27.17
2018-08-17T16:33:21.880Z,27.05
2018-08-17T16:35:47.843Z,26.69
2018-08-17T16:38:13.780Z,27.58
2018-08-17T16:40:39.772Z,27.21
2018-08-17T16:43:05.827Z,27.57
2018-08-17T16:45:31.831Z,27.23
2018-08-17T16:47:57.777Z,26.69
2018-08-17T16:50:23.752Z,27.08
2018-08-17T16:52:49.710Z,27.18
2018-08-17T16:55:15.646Z,27.88
2018-08-17T16:57:41.581Z,27.94
2018-08-17T17:00:07.524Z,27.54
2018-08-17T17:02:33.459Z,27.58
2018-08-17T17:04:59.384Z,27.52
2018-08-17T17:07:25.364Z,27.81
2018-08-17T17:09:51.319Z,29.15
2018-08-17T17:12:18.302Z,30.07
2018-08-17T17:14:44.256Z,30.16
2018-08-17T17:17:10.271Z,30.88
2018-08-17T17:19:36.345Z,30.98
2018-08-17T17:22:03.308Z,31.02
2018-08-17T17:24:29.237Z,31.65
2018-08-17T17:26:55.218Z,31.42
2018-08-17T17:29:23.251Z,31.67
2018-08-17T17:31:49.199Z,32.12
2018-08-17T17:34:15.164Z,31.87
2018-08-17T17:36:42.167Z,32.01
2018-08-17T17:39:08.121Z,31.95
2018-08-17T17:41:34.185Z,32.21
2018-08-17T17:44:00.166Z,32.11
2018-08-17T17:46:26.139Z,32.18
2018-08-17T17:48:52.163Z,32.38
2018-08-17T17:51:18.118Z,33.21
2018-08-17T17:53:44.055Z,32.82
2018-08-17T17:56:10.047Z,32.40
2018-08-17T17:58:35.996Z,32.55
2018-08-17T18:01:01.948Z,32.30
2018-08-17T18:03:27.888Z,32.70
2018-08-17T18:05:53.822Z,32.02
2018-08-17T18:08:19.890Z,33.01
2018-08-17T18:10:45.825Z,33.21
2018-08-17T18:13:11.772Z,32.35
2018-08-17T18:15:37.733Z,33.08
2018-08-17T18:18:03.691Z,33.19
2018-08-17T18:20:29.646Z,32.63
2018-08-17T18:22:55.586Z,32.42
2018-08-17T18:25:21.545Z,33.03
2018-08-17T18:27:47.556Z,32.82
2018-08-17T18:30:13.509Z,33.00
2018-08-17T18:32:39.477Z,32.14
2018-08-17T18:35:05.454Z,32.59
2018-08-17T18:37:31.398Z,32.45
2018-08-17T18:39:57.368Z,32.68
2018-08-17T18:42:23.318Z,32.04
2018-08-17T18:44:49.269Z,32.53
2018-08-17T18:47:15.244Z,32.07
2018-08-17T18:49:41.191Z,32.12
2018-08-17T18:52:07.140Z,32.13
2018-08-17T18:54:33.181Z,31.99
2018-08-17T18:56:59.185Z,31.56
2018-08-17T18:59:25.153Z,30.82
2018-08-17T19:01:51.092Z,30.74
2018-08-17T19:04:17.072Z,30.81
2018-08-17T19:06:43.057Z,31.16
2018-08-17T19:09:09.013Z,31.59
2018-08-17T19:11:35.036Z,31.29
2018-08-17T19:14:01.042Z,31.15
2018-08-17T19:16:27.033Z,31.91
2018-08-17T19:18:52.974Z,31.98
2018-08-17T19:21:18.928Z,31.04
2018-08-17T19:23:44.900Z,30.73
2018-08-17T19:26:10.862Z,31.16
2018-08-17T19:28:36.844Z,30.88
2018-08-17T19:31:02.813Z,31.03
2018-08-17T19:33:28.845Z,30.67
2018-08-17T19:35:54.784Z,30.93
2018-08-17T19:38:20.736Z,30.48
2018-08-17T19:40:46.678Z,31.25
2018-08-17T19:43:12.661Z,31.61
2018-08-17T19:45:38.698Z,31.46
2018-08-17T19:48:05.731Z,31.39
2018-08-17T19:50:31.697Z,31.20
2018-08-17T19:52:57.802Z,31.06
2018-08-17T19:55:23.754Z,31.24
2018-08-17T19:57:49.727Z,31.38
2018-08-17T20:00:15.685Z,31.44
2018-08-17T20:02:41.649Z,31.00
2018-08-17T20:05:07.632Z,31.04
2018-08-17T20:07:33.635Z,30.81
2018-08-17T20:09:59.556Z,31.19
2018-08-17T20:12:25.528Z,30.79
2018-08-17T20:14:51.484Z,30.54
2018-08-17T20:17:17.497Z,31.58
2018-08-17T20:19:43.481Z,31.30
2018-08-17T20:22:09.420Z,30.72
2018-08-17T20:24:35.398Z,30.53
2018-08-17T20:27:01.553Z,30.55
2018-08-17T20:29:27.433Z,30.74
2018-08-17T20:31:53.384Z,31.68
2018-08-17T20:34:19.390Z,31.32
2018-08-17T20:36:46.404Z,31.42
2018-08-17T20:39:12.356Z,31.00
2018-08-17T20:41:39.356Z,31.08
2018-08-17T20:44:05.386Z,31.86
2018-08-17T20:46:31.335Z,31.44
2018-08-17T20:48:57.338Z,32.24
2018-08-17T20:51:23.278Z,31.95
2018-08-17T20:53:49.248Z,32.90
2018-08-17T20:56:15.188Z,31.84
2018-08-17T20:58:45.225Z,31.79
2018-08-17T21:01:11.214Z,32.74
2018-08-17T21:03:37.186Z,32.80
2018-08-17T21:06:03.147Z,32.62
2018-08-17T21:08:29.145Z,32.41
2018-08-17T21:10:55.109Z,32.49
2018-08-17T21:13:21.078Z,32.97
2018-08-17T21:15:47.048Z,33.40
2018-08-17T21:18:13.074Z,33.80
2018-08-17T21:20:39.033Z,33.93
2018-08-17T21:23:06.058Z,33.68
2018-08-17T21:25:34.021Z,35.58
2018-08-17T21:27:59.968Z,35.44
2018-08-17T21:30:25.932Z,34.99
2018-08-17T21:32:51.888Z,36.84
2018-08-17T21:35:17.832Z,36.43
2018-08-17T21:37:43.777Z,38.65
2018-08-17T21:40:09.729Z,36.20
2018-08-17T21:42:35.676Z,36.35
2018-08-17T21:45:01.654Z,36.24
2018-08-17T21:47:27.644Z,36.47
2018-08-17T21:49:53.606Z,35.68
2018-08-17T21:52:19.577Z,35.99
2018-08-17T21:54:45.549Z,37.14
2018-08-17T21:57:11.494Z,37.16
2018-08-17T21:59:37.464Z,39.92
2018-08-17T22:02:03.421Z,38.46
2018-08-17T22:04:29.381Z,37.93
2018-08-17T22:06:55.312Z,39.56
2018-08-17T22:09:21.274Z,40.46
2018-08-17T22:11:47.228Z,40.41
2018-08-17T22:14:13.182Z,41.44
2018-08-17T22:16:39.130Z,40.83
2018-08-17T22:19:05.102Z,40.23
2018-08-17T22:21:31.063Z,40.70
2018-08-17T22:23:57.026Z,39.65
2018-08-17T22:26:22.984Z,40.85
2018-08-17T22:28:48.954Z,40.50
2018-08-17T22:31:14.916Z,39.63
2018-08-17T22:33:40.869Z,41.37
2018-08-17T22:36:06.824Z,41.62
2018-08-17T22:38:32.791Z,40.24
2018-08-17T22:40:58.748Z,41.96
2018-08-17T22:43:24.706Z,41.73
2018-08-17T22:45:50.632Z,44.20
2018-08-17T22:48:16.598Z,42.42
2018-08-17T22:50:42.548Z,43.07
2018-08-17T22:53:08.491Z,43.49
2018-08-17T22:55:34.700Z,43.90
2018-08-17T22:58:00.661Z,42.92
2018-08-17T23:00:26.614Z,43.61
2018-08-17T23:02:52.557Z,42.14
2018-08-17T23:05:18.508Z,42.04
2018-08-17T23:07:44.467Z,42.49
2018-08-17T23:10:10.405Z,42.19
2018-08-17T23:12:36.375Z,43.11
2018-08-17T23:15:02.329Z,42.90
2018-08-17T23:17:28.312Z,42.91
2018-08-17T23:19:54.645Z,43.40
2018-08-17T23:22:20.633Z,42.85
2018-08-17T23:24:46.643Z,41.44
2018-08-17T23:27:12.565Z,43.83
2018-08-17T23:29:38.507Z,42.98
2018-08-17T23:32:04.488Z,45.39
2018-08-17T23:34:30.452Z,46.80
2018-08-17T23:36:56.429Z,47.87
2018-08-17T23:39:22.379Z,48.17
2018-08-17T23:41:48.357Z,48.84
2018-08-17T23:44:14.336Z,47.67
2018-08-17T23:46:40.303Z,46.59
2018-08-17T23:49:06.258Z,47.81
2018-08-17T23:51:32.261Z,48.48
2018-08-17T23:53:58.202Z,49.18
2018-08-17T23:56:24.171Z,48.99
2018-08-17T23:58:50.112Z,49.95
